sensor_id;sensor_type;location;lat;lon;timestamp;P1;durP1;ratioP1;P2;durP2;ratioP2
62679;SDS011;48746;55.578;37.902;2022-08-21T00:02:20;67.72;;;41.88;;
62679;SDS011;48746;55.578;37.902;2022-08-21T00:04:48;68.90;;;43.20;;
62679;SDS011;48746;55.578;37.902;2022-08-21T00:07:16;83.38;;;44.85;;
62679;SDS011;48746;55.578;37.902;2022-08-21T00:09:42;73.63;;;43.42;;
62679;SDS011;48746;55.578;37.902;2022-08-21T00:12:12;85.50;;;43.95;;
62679;SDS011;48746;55.578;37.902;2022-08-21T00:14:39;75.78;;;42.17;;
62679;SDS011;48746;55.578;37.902;2022-08-21T00:17:06;70.65;;;43.40;;
62679;SDS011;48746;55.578;37.902;2022-08-21T00:19:33;78.30;;;43.67;;
62679;SDS011;48746;55.578;37.902;2022-08-21T00:22:02;79.30;;;42.97;;
62679;SDS011;48746;55.578;37.902;2022-08-21T00:24:28;75.57;;;42.95;;
62679;SDS011;48746;55.578;37.902;2022-08-21T00:26:54;73.50;;;41.65;;
62679;SDS011;48746;55.578;37.902;2022-08-21T00:29:21;76.07;;;43.47;;
62679;SDS011;48746;55.578;37.902;2022-08-21T00:31:50;77.30;;;42.10;;
62679;SDS011;48746;55.578;37.902;2022-08-21T00:34:17;76.30;;;42.38;;
62679;SDS011;48746;55.578;37.902;2022-08-21T00:36:43;70.72;;;41.50;;
62679;SDS011;48746;55.578;37.902;2022-08-21T00:39:09;72.93;;;42.08;;
62679;SDS011;48746;55.578;37.902;2022-08-21T00:41:39;79.28;;;43.10;;
62679;SDS011;48746;55.578;37.902;2022-08-21T00:44:08;67.80;;;40.65;;
62679;SDS011;48746;55.578;37.902;2022-08-21T00:46:36;71.45;;;40.22;;
62679;SDS011;48746;55.578;37.902;2022-08-21T00:49:04;67.30;;;40.83;;
62679;SDS011;48746;55.578;37.902;2022-08-21T00:51:34;76.35;;;40.13;;
62679;SDS011;48746;55.578;37.902;2022-08-21T00:54:03;70.28;;;39.10;;
62679;SDS011;48746;55.578;37.902;2022-08-21T00:56:30;71.03;;;40.35;;
62679;SDS011;48746;55.578;37.902;2022-08-21T00:58:56;72.30;;;39.83;;
62679;SDS011;48746;55.578;37.902;2022-08-21T01:04:31;69.38;;;39.15;;
62679;SDS011;48746;55.578;37.902;2022-08-21T01:06:57;67.45;;;38.58;;
62679;SDS011;48746;55.578;37.902;2022-08-21T01:09:24;69.70;;;39.40;;
62679;SDS011;48746;55.578;37.902;2022-08-21T01:14:56;67.20;;;37.65;;
62679;SDS011;48746;55.578;37.902;2022-08-21T01:17:23;67.97;;;37.80;;
62679;SDS011;48746;55.578;37.902;2022-08-21T01:19:50;69.13;;;37.13;;
62679;SDS011;48746;55.578;37.902;2022-08-21T01:22:16;62.55;;;36.05;;
62679;SDS011;48746;55.578;37.902;2022-08-21T01:24:42;64.80;;;35.63;;
62679;SDS011;48746;55.578;37.902;2022-08-21T01:27:08;62.55;;;36.13;;
62679;SDS011;48746;55.578;37.902;2022-08-21T01:29:39;62.83;;;35.45;;
62679;SDS011;48746;55.578;37.902;2022-08-21T01:35:17;60.85;;;34.80;;
62679;SDS011;48746;55.578;37.902;2022-08-21T01:37:45;66.28;;;35.85;;
62679;SDS011;48746;55.578;37.902;2022-08-21T01:40:13;64.28;;;35.70;;
62679;SDS011;48746;55.578;37.902;2022-08-21T01:42:39;65.25;;;35.00;;
62679;SDS011;48746;55.578;37.902;2022-08-21T01:45:07;65.68;;;32.72;;
62679;SDS011;48746;55.578;37.902;2022-08-21T01:47:33;57.33;;;34.55;;
62679;SDS011;48746;55.578;37.902;2022-08-21T01:50:00;68.28;;;35.20;;
62679;SDS011;48746;55.578;37.902;2022-08-21T01:52:26;63.35;;;34.97;;
62679;SDS011;48746;55.578;37.902;2022-08-21T01:54:54;60.58;;;34.38;;
62679;SDS011;48746;55.578;37.902;2022-08-21T01:57:21;65.63;;;35.40;;
62679;SDS011;48746;55.578;37.902;2022-08-21T01:59:47;63.22;;;33.55;;
62679;SDS011;48746;55.578;37.902;2022-08-21T02:05:21;71.00;;;34.67;;
62679;SDS011;48746;55.578;37.902;2022-08-21T02:07:49;61.67;;;34.85;;
62679;SDS011;48746;55.578;37.902;2022-08-21T02:10:20;65.03;;;33.28;;
62679;SDS011;48746;55.578;37.902;2022-08-21T02:12:56;62.80;;;34.33;;
62679;SDS011;48746;55.578;37.902;2022-08-21T02:15:22;68.80;;;34.80;;
62679;SDS011;48746;55.578;37.902;2022-08-21T02:17:50;58.08;;;33.30;;
62679;SDS011;48746;55.578;37.902;2022-08-21T02:20:22;60.45;;;32.33;;
62679;SDS011;48746;55.578;37.902;2022-08-21T02:22:51;64.55;;;34.70;;
62679;SDS011;48746;55.578;37.902;2022-08-21T02:25:19;67.97;;;34.03;;
62679;SDS011;48746;55.578;37.902;2022-08-21T02:27:46;70.43;;;35.58;;
62679;SDS011;48746;55.578;37.902;2022-08-21T02:30:14;66.03;;;33.63;;
62679;SDS011;48746;55.578;37.902;2022-08-21T02:35:53;62.22;;;33.55;;
62679;SDS011;48746;55.578;37.902;2022-08-21T02:38:25;61.80;;;33.47;;
62679;SDS011;48746;55.578;37.902;2022-08-21T02:40:53;62.45;;;34.08;;
62679;SDS011;48746;55.578;37.902;2022-08-21T02:43:20;60.90;;;34.22;;
62679;SDS011;48746;55.578;37.902;2022-08-21T02:45:48;59.20;;;33.90;;
62679;SDS011;48746;55.578;37.902;2022-08-21T02:48:19;62.28;;;34.25;;
62679;SDS011;48746;55.578;37.902;2022-08-21T02:50:48;63.50;;;35.05;;
62679;SDS011;48746;55.578;37.902;2022-08-21T02:53:18;64.47;;;34.92;;
62679;SDS011;48746;55.578;37.902;2022-08-21T02:55:47;66.32;;;36.10;;
62679;SDS011;48746;55.578;37.902;2022-08-21T02:58:15;62.60;;;34.20;;
62679;SDS011;48746;55.578;37.902;2022-08-21T03:00:43;58.60;;;35.30;;
62679;SDS011;48746;55.578;37.902;2022-08-21T03:03:10;57.65;;;34.65;;
62679;SDS011;48746;55.578;37.902;2022-08-21T03:05:37;61.05;;;35.85;;
62679;SDS011;48746;55.578;37.902;2022-08-21T03:08:05;65.60;;;35.78;;
62679;SDS011;48746;55.578;37.902;2022-08-21T03:10:37;68.45;;;37.30;;
62679;SDS011;48746;55.578;37.902;2022-08-21T03:13:05;62.60;;;37.00;;
62679;SDS011;48746;55.578;37.902;2022-08-21T03:15:32;69.75;;;36.92;;
62679;SDS011;48746;55.578;37.902;2022-08-21T03:18:00;68.43;;;38.13;;
62679;SDS011;48746;55.578;37.902;2022-08-21T03:20:27;66.80;;;37.78;;
62679;SDS011;48746;55.578;37.902;2022-08-21T03:22:58;66.93;;;38.00;;
62679;SDS011;48746;55.578;37.902;2022-08-21T03:25:25;69.15;;;38.65;;
62679;SDS011;48746;55.578;37.902;2022-08-21T03:27:52;70.43;;;40.40;;
62679;SDS011;48746;55.578;37.902;2022-08-21T03:30:19;67.72;;;39.90;;
62679;SDS011;48746;55.578;37.902;2022-08-21T03:32:50;73.03;;;39.22;;
62679;SDS011;48746;55.578;37.902;2022-08-21T03:35:17;69.63;;;41.58;;
62679;SDS011;48746;55.578;37.902;2022-08-21T03:37:43;69.47;;;41.30;;
62679;SDS011;48746;55.578;37.902;2022-08-21T03:40:11;71.40;;;41.58;;
62679;SDS011;48746;55.578;37.902;2022-08-21T03:42:39;76.30;;;43.47;;
62679;SDS011;48746;55.578;37.902;2022-08-21T03:45:05;73.78;;;44.25;;
62679;SDS011;48746;55.578;37.902;2022-08-21T03:47:32;74.47;;;42.90;;
62679;SDS011;48746;55.578;37.902;2022-08-21T03:49:58;69.78;;;42.55;;
62679;SDS011;48746;55.578;37.902;2022-08-21T03:52:28;74.70;;;44.47;;
62679;SDS011;48746;55.578;37.902;2022-08-21T03:54:54;72.10;;;44.63;;
62679;SDS011;48746;55.578;37.902;2022-08-21T03:57:21;75.93;;;45.10;;
62679;SDS011;48746;55.578;37.902;2022-08-21T03:59:47;78.30;;;45.15;;
62679;SDS011;48746;55.578;37.902;2022-08-21T04:02:17;75.43;;;44.00;;
62679;SDS011;48746;55.578;37.902;2022-08-21T04:04:45;78.82;;;48.03;;
62679;SDS011;48746;55.578;37.902;2022-08-21T04:07:11;84.70;;;49.30;;
62679;SDS011;48746;55.578;37.902;2022-08-21T04:09:37;81.90;;;47.63;;
62679;SDS011;48746;55.578;37.902;2022-08-21T04:12:07;79.72;;;48.60;;
62679;SDS011;48746;55.578;37.902;2022-08-21T04:14:33;85.68;;;48.80;;
62679;SDS011;48746;55.578;37.902;2022-08-21T04:17:00;81.50;;;49.92;;
62679;SDS011;48746;55.578;37.902;2022-08-21T04:19:26;81.97;;;49.97;;
62679;SDS011;48746;55.578;37.902;2022-08-21T04:21:52;80.82;;;50.60;;
62679;SDS011;48746;55.578;37.902;2022-08-21T04:24:18;86.75;;;51.63;;
62679;SDS011;48746;55.578;37.902;2022-08-21T04:26:45;86.03;;;52.60;;
62679;SDS011;48746;55.578;37.902;2022-08-21T04:29:11;84.28;;;49.47;;
62679;SDS011;48746;55.578;37.902;2022-08-21T04:31:40;88.10;;;51.15;;
62679;SDS011;48746;55.578;37.902;2022-08-21T04:34:06;87.35;;;53.78;;
62679;SDS011;48746;55.578;37.902;2022-08-21T04:36:33;87.28;;;51.88;;
62679;SDS011;48746;55.578;37.902;2022-08-21T04:38:59;86.55;;;51.50;;
62679;SDS011;48746;55.578;37.902;2022-08-21T04:41:29;83.18;;;51.53;;
62679;SDS011;48746;55.578;37.902;2022-08-21T04:43:55;86.20;;;50.58;;
62679;SDS011;48746;55.578;37.902;2022-08-21T04:46:22;88.10;;;49.45;;
62679;SDS011;48746;55.578;37.902;2022-08-21T04:48:48;85.32;;;53.25;;
62679;SDS011;48746;55.578;37.902;2022-08-21T04:51:19;89.47;;;52.30;;
62679;SDS011;48746;55.578;37.902;2022-08-21T04:56:37;82.97;;;51.97;;
62679;SDS011;48746;55.578;37.902;2022-08-21T04:59:13;83.38;;;52.55;;
62679;SDS011;48746;55.578;37.902;2022-08-21T05:01:45;79.68;;;52.13;;
62679;SDS011;48746;55.578;37.902;2022-08-21T05:04:13;88.00;;;53.67;;
62679;SDS011;48746;55.578;37.902;2022-08-21T05:06:41;81.63;;;52.15;;
62679;SDS011;48746;55.578;37.902;2022-08-21T05:09:12;89.65;;;53.30;;
62679;SDS011;48746;55.578;37.902;2022-08-21T05:11:42;80.18;;;53.45;;
62679;SDS011;48746;55.578;37.902;2022-08-21T05:14:09;83.40;;;51.67;;
62679;SDS011;48746;55.578;37.902;2022-08-21T05:16:36;78.95;;;51.15;;
62679;SDS011;48746;55.578;37.902;2022-08-21T05:19:04;76.63;;;51.10;;
62679;SDS011;48746;55.578;37.902;2022-08-21T05:21:36;84.45;;;52.15;;
62679;SDS011;48746;55.578;37.902;2022-08-21T05:24:04;79.45;;;50.78;;
62679;SDS011;48746;55.578;37.902;2022-08-21T05:26:30;78.43;;;51.28;;
62679;SDS011;48746;55.578;37.902;2022-08-21T05:28:56;79.35;;;49.40;;
62679;SDS011;48746;55.578;37.902;2022-08-21T05:31:26;76.07;;;47.40;;
62679;SDS011;48746;55.578;37.902;2022-08-21T05:33:52;81.88;;;52.65;;
62679;SDS011;48746;55.578;37.902;2022-08-21T05:36:18;75.32;;;48.17;;
62679;SDS011;48746;55.578;37.902;2022-08-21T05:38:45;68.43;;;43.00;;
62679;SDS011;48746;55.578;37.902;2022-08-21T05:41:15;81.75;;;46.42;;
62679;SDS011;48746;55.578;37.902;2022-08-21T05:43:41;70.70;;;47.00;;
62679;SDS011;48746;55.578;37.902;2022-08-21T05:46:08;72.88;;;46.83;;
62679;SDS011;48746;55.578;37.902;2022-08-21T05:48:35;71.10;;;46.72;;
62679;SDS011;48746;55.578;37.902;2022-08-21T05:51:06;78.05;;;46.95;;
62679;SDS011;48746;55.578;37.902;2022-08-21T05:53:36;80.57;;;45.55;;
62679;SDS011;48746;55.578;37.902;2022-08-21T05:56:03;76.38;;;46.97;;
62679;SDS011;48746;55.578;37.902;2022-08-21T05:58:31;73.53;;;46.25;;
62679;SDS011;48746;55.578;37.902;2022-08-21T06:01:01;70.18;;;47.10;;
62679;SDS011;48746;55.578;37.902;2022-08-21T06:03:30;71.35;;;44.40;;
62679;SDS011;48746;55.578;37.902;2022-08-21T06:05:58;77.18;;;44.53;;
62679;SDS011;48746;55.578;37.902;2022-08-21T06:08:24;72.00;;;43.90;;
62679;SDS011;48746;55.578;37.902;2022-08-21T06:10:51;79.35;;;46.13;;
62679;SDS011;48746;55.578;37.902;2022-08-21T06:13:19;70.57;;;43.50;;
62679;SDS011;48746;55.578;37.902;2022-08-21T06:15:46;74.13;;;44.35;;
62679;SDS011;48746;55.578;37.902;2022-08-21T06:18:13;71.65;;;45.45;;
62679;SDS011;48746;55.578;37.902;2022-08-21T06:20:39;70.00;;;44.35;;
62679;SDS011;48746;55.578;37.902;2022-08-21T06:23:06;72.80;;;45.28;;
62679;SDS011;48746;55.578;37.902;2022-08-21T06:25:32;70.78;;;44.50;;
62679;SDS011;48746;55.578;37.902;2022-08-21T06:28:06;66.82;;;41.70;;
62679;SDS011;48746;55.578;37.902;2022-08-21T06:30:34;74.60;;;42.67;;
62679;SDS011;48746;55.578;37.902;2022-08-21T06:33:01;67.05;;;43.33;;
62679;SDS011;48746;55.578;37.902;2022-08-21T06:35:28;75.43;;;44.10;;
62679;SDS011;48746;55.578;37.902;2022-08-21T06:37:58;65.82;;;41.38;;
62679;SDS011;48746;55.578;37.902;2022-08-21T06:40:25;67.45;;;40.17;;
62679;SDS011;48746;55.578;37.902;2022-08-21T06:42:53;74.10;;;41.03;;
62679;SDS011;48746;55.578;37.902;2022-08-21T06:45:20;71.70;;;41.00;;
62679;SDS011;48746;55.578;37.902;2022-08-21T06:47:46;67.47;;;41.40;;
62679;SDS011;48746;55.578;37.902;2022-08-21T06:50:13;70.63;;;41.22;;
62679;SDS011;48746;55.578;37.902;2022-08-21T06:52:42;66.38;;;40.97;;
62679;SDS011;48746;55.578;37.902;2022-08-21T06:55:08;73.25;;;41.20;;
62679;SDS011;48746;55.578;37.902;2022-08-21T06:57:37;65.70;;;36.33;;
62679;SDS011;48746;55.578;37.902;2022-08-21T07:00:05;53.65;;;31.52;;
62679;SDS011;48746;55.578;37.902;2022-08-21T07:02:32;59.47;;;31.90;;
62679;SDS011;48746;55.578;37.902;2022-08-21T07:04:59;56.95;;;33.70;;
62679;SDS011;48746;55.578;37.902;2022-08-21T07:07:25;55.75;;;33.30;;
62679;SDS011;48746;55.578;37.902;2022-08-21T07:09:52;61.13;;;33.60;;
62679;SDS011;48746;55.578;37.902;2022-08-21T07:12:21;55.80;;;33.55;;
62679;SDS011;48746;55.578;37.902;2022-08-21T07:14:47;56.75;;;35.00;;
62679;SDS011;48746;55.578;37.902;2022-08-21T07:17:14;51.75;;;34.40;;
62679;SDS011;48746;55.578;37.902;2022-08-21T07:19:40;60.90;;;35.75;;
62679;SDS011;48746;55.578;37.902;2022-08-21T07:22:09;59.45;;;36.22;;
62679;SDS011;48746;55.578;37.902;2022-08-21T07:24:36;52.17;;;32.50;;
62679;SDS011;48746;55.578;37.902;2022-08-21T07:27:02;55.22;;;33.35;;
62679;SDS011;48746;55.578;37.902;2022-08-21T07:29:28;54.53;;;34.22;;
62679;SDS011;48746;55.578;37.902;2022-08-21T07:35:02;61.40;;;34.88;;
62679;SDS011;48746;55.578;37.902;2022-08-21T07:37:29;54.75;;;32.53;;
62679;SDS011;48746;55.578;37.902;2022-08-21T07:39:55;55.97;;;32.63;;
62679;SDS011;48746;55.578;37.902;2022-08-21T07:45:26;49.97;;;27.45;;
62679;SDS011;48746;55.578;37.902;2022-08-21T07:47:53;49.33;;;28.60;;
62679;SDS011;48746;55.578;37.902;2022-08-21T07:50:19;47.72;;;27.85;;
62679;SDS011;48746;55.578;37.902;2022-08-21T07:52:46;42.17;;;25.75;;
62679;SDS011;48746;55.578;37.902;2022-08-21T07:55:14;46.95;;;25.15;;
62679;SDS011;48746;55.578;37.902;2022-08-21T07:57:42;35.33;;;22.60;;
62679;SDS011;48746;55.578;37.902;2022-08-21T08:00:10;40.30;;;23.48;;
62679;SDS011;48746;55.578;37.902;2022-08-21T08:02:39;40.13;;;23.52;;
62679;SDS011;48746;55.578;37.902;2022-08-21T08:05:06;41.35;;;23.20;;
62679;SDS011;48746;55.578;37.902;2022-08-21T08:07:35;38.63;;;22.38;;
62679;SDS011;48746;55.578;37.902;2022-08-21T08:10:02;36.97;;;21.92;;
62679;SDS011;48746;55.578;37.902;2022-08-21T08:12:33;39.20;;;20.45;;
62679;SDS011;48746;55.578;37.902;2022-08-21T08:15:02;34.92;;;21.00;;
62679;SDS011;48746;55.578;37.902;2022-08-21T08:17:30;41.75;;;24.02;;
62679;SDS011;48746;55.578;37.902;2022-08-21T08:19:58;40.50;;;22.75;;
62679;SDS011;48746;55.578;37.902;2022-08-21T08:22:29;34.67;;;21.90;;
62679;SDS011;48746;55.578;37.902;2022-08-21T08:24:55;45.30;;;23.23;;
62679;SDS011;48746;55.578;37.902;2022-08-21T08:27:23;47.03;;;22.17;;
62679;SDS011;48746;55.578;37.902;2022-08-21T08:29:49;34.78;;;21.60;;
62679;SDS011;48746;55.578;37.902;2022-08-21T08:32:15;46.13;;;23.58;;
62679;SDS011;48746;55.578;37.902;2022-08-21T08:34:42;41.55;;;23.67;;
62679;SDS011;48746;55.578;37.902;2022-08-21T08:37:09;38.00;;;19.77;;
62679;SDS011;48746;55.578;37.902;2022-08-21T08:39:36;30.17;;;19.40;;
62679;SDS011;48746;55.578;37.902;2022-08-21T08:44:43;35.90;;;15.98;;
62679;SDS011;48746;55.578;37.902;2022-08-21T08:47:12;32.10;;;15.05;;
62679;SDS011;48746;55.578;37.902;2022-08-21T08:52:48;32.88;;;16.20;;
62679;SDS011;48746;55.578;37.902;2022-08-21T08:55:20;30.38;;;16.17;;
62679;SDS011;48746;55.578;37.902;2022-08-21T08:57:50;30.38;;;17.75;;
62679;SDS011;48746;55.578;37.902;2022-08-21T09:00:18;35.90;;;18.65;;
62679;SDS011;48746;55.578;37.902;2022-08-21T09:02:46;30.95;;;16.17;;
62679;SDS011;48746;55.578;37.902;2022-08-21T09:05:27;28.33;;;15.40;;
62679;SDS011;48746;55.578;37.902;2022-08-21T09:11:01;42.70;;;19.98;;
62679;SDS011;48746;55.578;37.902;2022-08-21T09:29:39;28.35;;;17.38;;
62679;SDS011;48746;55.578;37.902;2022-08-21T09:35:21;24.08;;;13.48;;
62679;SDS011;48746;55.578;37.902;2022-08-21T09:37:53;29.92;;;14.88;;
62679;SDS011;48746;55.578;37.902;2022-08-21T09:43:02;16.30;;;8.35;;
62679;SDS011;48746;55.578;37.902;2022-08-21T09:45:35;18.23;;;7.07;;
62679;SDS011;48746;55.578;37.902;2022-08-21T09:48:38;19.63;;;7.50;;
62679;SDS011;48746;55.578;37.902;2022-08-21T09:51:15;18.40;;;6.90;;
62679;SDS011;48746;55.578;37.902;2022-08-21T09:53:45;17.08;;;7.07;;
62679;SDS011;48746;55.578;37.902;2022-08-21T09:56:31;19.02;;;6.97;;
62679;SDS011;48746;55.578;37.902;2022-08-21T09:59:28;20.63;;;6.60;;
62679;SDS011;48746;55.578;37.902;2022-08-21T10:01:59;12.98;;;7.20;;
62679;SDS011;48746;55.578;37.902;2022-08-21T10:04:28;17.38;;;7.07;;
62679;SDS011;48746;55.578;37.902;2022-08-21T10:07:09;12.07;;;5.72;;
62679;SDS011;48746;55.578;37.902;2022-08-21T10:09:38;13.30;;;5.90;;
62679;SDS011;48746;55.578;37.902;2022-08-21T10:20:23;10.70;;;4.00;;
62679;SDS011;48746;55.578;37.902;2022-08-21T10:25:43;8.88;;;3.63;;
62679;SDS011;48746;55.578;37.902;2022-08-21T10:28:21;9.73;;;3.38;;
62679;SDS011;48746;55.578;37.902;2022-08-21T10:31:00;8.98;;;3.15;;
62679;SDS011;48746;55.578;37.902;2022-08-21T10:33:52;11.73;;;4.25;;
62679;SDS011;48746;55.578;37.902;2022-08-21T10:39:19;13.68;;;4.60;;
62679;SDS011;48746;55.578;37.902;2022-08-21T10:55:50;20.35;;;8.45;;
62679;SDS011;48746;55.578;37.902;2022-08-21T10:58:24;17.25;;;7.78;;
62679;SDS011;48746;55.578;37.902;2022-08-21T11:01:13;17.33;;;8.95;;
62679;SDS011;48746;55.578;37.902;2022-08-21T11:03:45;24.38;;;12.25;;
62679;SDS011;48746;55.578;37.902;2022-08-21T11:06:19;28.48;;;13.00;;
62679;SDS011;48746;55.578;37.902;2022-08-21T11:08:55;33.75;;;16.27;;
62679;SDS011;48746;55.578;37.902;2022-08-21T11:14:56;29.67;;;16.45;;
62679;SDS011;48746;55.578;37.902;2022-08-21T11:17:43;31.53;;;17.70;;
62679;SDS011;48746;55.578;37.902;2022-08-21T11:20:20;35.90;;;18.67;;
62679;SDS011;48746;55.578;37.902;2022-08-21T11:22:54;28.17;;;17.10;;
62679;SDS011;48746;55.578;37.902;2022-08-21T11:28:00;34.10;;;15.38;;
62679;SDS011;48746;55.578;37.902;2022-08-21T11:30:55;29.63;;;13.75;;
62679;SDS011;48746;55.578;37.902;2022-08-21T11:39:27;23.70;;;13.52;;
62679;SDS011;48746;55.578;37.902;2022-08-21T11:42:14;26.05;;;13.82;;
62679;SDS011;48746;55.578;37.902;2022-08-21T11:47:33;28.67;;;13.02;;
62679;SDS011;48746;55.578;37.902;2022-08-21T11:50:31;25.00;;;10.55;;
62679;SDS011;48746;55.578;37.902;2022-08-21T11:55:31;18.27;;;7.60;;
62679;SDS011;48746;55.578;37.902;2022-08-21T11:58:25;16.48;;;7.10;;
62679;SDS011;48746;55.578;37.902;2022-08-21T12:04:02;12.50;;;3.55;;
62679;SDS011;48746;55.578;37.902;2022-08-21T12:06:34;19.15;;;10.05;;
62679;SDS011;48746;55.578;37.902;2022-08-21T12:09:27;24.10;;;9.93;;
62679;SDS011;48746;55.578;37.902;2022-08-21T12:25:38;27.10;;;12.15;;
62679;SDS011;48746;55.578;37.902;2022-08-21T12:28:11;22.40;;;10.77;;
62679;SDS011;48746;55.578;37.902;2022-08-21T12:30:41;20.70;;;11.10;;
62679;SDS011;48746;55.578;37.902;2022-08-21T12:36:13;22.20;;;9.35;;
62679;SDS011;48746;55.578;37.902;2022-08-21T12:41:19;18.40;;;8.50;;
62679;SDS011;48746;55.578;37.902;2022-08-21T12:43:53;19.13;;;8.50;;
62679;SDS011;48746;55.578;37.902;2022-08-21T12:46:37;19.52;;;7.80;;
62679;SDS011;48746;55.578;37.902;2022-08-21T12:49:13;18.67;;;6.00;;
62679;SDS011;48746;55.578;37.902;2022-08-21T12:54:24;15.88;;;5.45;;
62679;SDS011;48746;55.578;37.902;2022-08-21T12:56:57;21.75;;;5.82;;
62679;SDS011;48746;55.578;37.902;2022-08-21T12:59:27;11.68;;;5.50;;
62679;SDS011;48746;55.578;37.902;2022-08-21T13:01:58;21.27;;;5.88;;
62679;SDS011;48746;55.578;37.902;2022-08-21T13:07:05;19.63;;;7.90;;
62679;SDS011;48746;55.578;37.902;2022-08-21T13:09:33;20.17;;;8.95;;
62679;SDS011;48746;55.578;37.902;2022-08-21T13:15:06;16.50;;;6.03;;
62679;SDS011;48746;55.578;37.902;2022-08-21T13:17:34;13.75;;;6.07;;
62679;SDS011;48746;55.578;37.902;2022-08-21T13:20:10;17.05;;;5.63;;
62679;SDS011;48746;55.578;37.902;2022-08-21T13:22:49;19.90;;;5.28;;
62679;SDS011;48746;55.578;37.902;2022-08-21T13:25:16;16.45;;;5.32;;
62679;SDS011;48746;55.578;37.902;2022-08-21T13:27:55;18.08;;;5.93;;
62679;SDS011;48746;55.578;37.902;2022-08-21T13:30:23;17.15;;;6.43;;
62679;SDS011;48746;55.578;37.902;2022-08-21T13:38:32;23.55;;;7.82;;
62679;SDS011;48746;55.578;37.902;2022-08-21T13:41:05;19.70;;;6.82;;
62679;SDS011;48746;55.578;37.902;2022-08-21T13:43:37;16.02;;;7.00;;
62679;SDS011;48746;55.578;37.902;2022-08-21T13:46:07;14.30;;;5.88;;
62679;SDS011;48746;55.578;37.902;2022-08-21T13:48:36;12.00;;;3.83;;
62679;SDS011;48746;55.578;37.902;2022-08-21T13:51:05;14.85;;;4.55;;
62679;SDS011;48746;55.578;37.902;2022-08-21T13:56:07;9.52;;;3.00;;
62679;SDS011;48746;55.578;37.902;2022-08-21T13:58:44;10.32;;;2.45;;
62679;SDS011;48746;55.578;37.902;2022-08-21T14:01:31;10.98;;;2.42;;
62679;SDS011;48746;55.578;37.902;2022-08-21T14:04:04;10.85;;;1.83;;
62679;SDS011;48746;55.578;37.902;2022-08-21T14:06:34;14.80;;;1.80;;
62679;SDS011;48746;55.578;37.902;2022-08-21T14:09:10;8.20;;;2.10;;
62679;SDS011;48746;55.578;37.902;2022-08-21T14:11:44;7.22;;;1.67;;
62679;SDS011;48746;55.578;37.902;2022-08-21T14:14:23;5.80;;;1.70;;
62679;SDS011;48746;55.578;37.902;2022-08-21T14:16:55;9.35;;;2.00;;
62679;SDS011;48746;55.578;37.902;2022-08-21T14:19:42;15.07;;;2.22;;
62679;SDS011;48746;55.578;37.902;2022-08-21T14:27:31;12.75;;;2.17;;
62679;SDS011;48746;55.578;37.902;2022-08-21T14:30:01;10.82;;;2.05;;
62679;SDS011;48746;55.578;37.902;2022-08-21T14:32:39;6.15;;;2.03;;
62679;SDS011;48746;55.578;37.902;2022-08-21T14:35:06;10.13;;;2.97;;
62679;SDS011;48746;55.578;37.902;2022-08-21T14:37:33;12.48;;;2.78;;
62679;SDS011;48746;55.578;37.902;2022-08-21T14:40:00;12.95;;;2.38;;
62679;SDS011;48746;55.578;37.902;2022-08-21T14:42:31;14.10;;;2.30;;
62679;SDS011;48746;55.578;37.902;2022-08-21T14:44:59;10.32;;;2.65;;
62679;SDS011;48746;55.578;37.902;2022-08-21T14:47:29;8.23;;;2.40;;
62679;SDS011;48746;55.578;37.902;2022-08-21T14:49:55;10.82;;;2.30;;
62679;SDS011;48746;55.578;37.902;2022-08-21T14:52:22;12.48;;;2.00;;
62679;SDS011;48746;55.578;37.902;2022-08-21T14:54:49;7.55;;;1.90;;
62679;SDS011;48746;55.578;37.902;2022-08-21T14:57:16;12.52;;;1.95;;
62679;SDS011;48746;55.578;37.902;2022-08-21T14:59:42;9.23;;;2.28;;
62679;SDS011;48746;55.578;37.902;2022-08-21T15:02:11;10.98;;;2.22;;
62679;SDS011;48746;55.578;37.902;2022-08-21T15:04:37;11.30;;;2.40;;
62679;SDS011;48746;55.578;37.902;2022-08-21T15:07:04;11.45;;;2.40;;
62679;SDS011;48746;55.578;37.902;2022-08-21T15:09:30;12.02;;;2.95;;
62679;SDS011;48746;55.578;37.902;2022-08-21T15:11:58;6.80;;;2.65;;
62679;SDS011;48746;55.578;37.902;2022-08-21T15:14:27;9.93;;;2.50;;
62679;SDS011;48746;55.578;37.902;2022-08-21T15:16:56;11.73;;;2.50;;
62679;SDS011;48746;55.578;37.902;2022-08-21T15:19:22;12.13;;;2.60;;
62679;SDS011;48746;55.578;37.902;2022-08-21T15:21:49;14.32;;;3.15;;
62679;SDS011;48746;55.578;37.902;2022-08-21T15:24:15;7.03;;;2.22;;
62679;SDS011;48746;55.578;37.902;2022-08-21T15:26:41;5.43;;;2.30;;
62679;SDS011;48746;55.578;37.902;2022-08-21T15:29:08;8.57;;;2.50;;
62679;SDS011;48746;55.578;37.902;2022-08-21T15:31:40;9.65;;;2.10;;
62679;SDS011;48746;55.578;37.902;2022-08-21T15:34:17;8.00;;;2.00;;
62679;SDS011;48746;55.578;37.902;2022-08-21T15:36:43;13.73;;;3.17;;
62679;SDS011;48746;55.578;37.902;2022-08-21T15:39:09;6.63;;;2.20;;
62679;SDS011;48746;55.578;37.902;2022-08-21T15:41:38;10.30;;;2.97;;
62679;SDS011;48746;55.578;37.902;2022-08-21T15:44:05;7.10;;;2.20;;
62679;SDS011;48746;55.578;37.902;2022-08-21T15:46:31;14.80;;;2.50;;
62679;SDS011;48746;55.578;37.902;2022-08-21T15:48:57;12.73;;;2.80;;
62679;SDS011;48746;55.578;37.902;2022-08-21T15:51:26;9.80;;;2.90;;
62679;SDS011;48746;55.578;37.902;2022-08-21T15:53:53;11.40;;;3.00;;
62679;SDS011;48746;55.578;37.902;2022-08-21T15:56:24;11.85;;;2.60;;
62679;SDS011;48746;55.578;37.902;2022-08-21T15:58:52;14.30;;;3.20;;
62679;SDS011;48746;55.578;37.902;2022-08-21T16:01:23;9.35;;;2.70;;
62679;SDS011;48746;55.578;37.902;2022-08-21T16:03:50;7.57;;;2.70;;
62679;SDS011;48746;55.578;37.902;2022-08-21T16:06:18;12.70;;;2.42;;
62679;SDS011;48746;55.578;37.902;2022-08-21T16:08:44;9.10;;;2.20;;
62679;SDS011;48746;55.578;37.902;2022-08-21T16:14:17;10.10;;;3.33;;
62679;SDS011;48746;55.578;37.902;2022-08-21T16:16:44;7.40;;;2.50;;
62679;SDS011;48746;55.578;37.902;2022-08-21T16:19:10;11.13;;;2.30;;
62679;SDS011;48746;55.578;37.902;2022-08-21T16:21:37;12.23;;;2.53;;
62679;SDS011;48746;55.578;37.902;2022-08-21T16:24:04;9.48;;;2.00;;
62679;SDS011;48746;55.578;37.902;2022-08-21T16:26:30;8.90;;;2.67;;
62679;SDS011;48746;55.578;37.902;2022-08-21T16:28:57;22.40;;;4.60;;
62679;SDS011;48746;55.578;37.902;2022-08-21T16:34:31;11.27;;;2.53;;
62679;SDS011;48746;55.578;37.902;2022-08-21T16:36:58;8.52;;;2.30;;
62679;SDS011;48746;55.578;37.902;2022-08-21T16:39:25;10.50;;;2.95;;
62679;SDS011;48746;55.578;37.902;2022-08-21T16:44:57;13.95;;;4.30;;
62679;SDS011;48746;55.578;37.902;2022-08-21T16:47:24;19.75;;;5.78;;
62679;SDS011;48746;55.578;37.902;2022-08-21T16:49:50;15.73;;;6.03;;
62679;SDS011;48746;55.578;37.902;2022-08-21T16:55:23;19.65;;;8.20;;
62679;SDS011;48746;55.578;37.902;2022-08-21T16:57:52;24.30;;;9.45;;
62679;SDS011;48746;55.578;37.902;2022-08-21T17:00:18;22.35;;;8.68;;
62679;SDS011;48746;55.578;37.902;2022-08-21T17:02:46;17.75;;;7.55;;
62679;SDS011;48746;55.578;37.902;2022-08-21T17:05:15;18.70;;;7.55;;